createdAt,value
2023-01-21T08:29:19.703Z,99109.00
2023-01-21T08:35:30.669Z,99105.06
2023-01-21T08:47:02.851Z,99115.09
2023-01-21T08:53:11.920Z,99135.41
2023-01-21T08:59:27.211Z,99136.22
2023-01-21T09:05:34.498Z,99144.81
2023-01-21T09:11:43.157Z,99142.09
2023-01-21T09:17:50.862Z,99145.41
2023-01-21T09:23:58.412Z,99142.81
2023-01-21T09:29:54.898Z,99144.91
2023-01-21T09:36:07.604Z,99152.03
2023-01-21T09:42:25.229Z,99153.06
2023-01-21T09:48:47.661Z,99170.97
2023-01-21T09:54:57.576Z,99163.13
2023-01-21T10:01:27.739Z,99145.09
2023-01-21T10:05:06.670Z,99147.41
2023-01-21T10:08:00.132Z,99149.50
2023-01-21T10:10:37.640Z,99142.13
2023-01-21T10:14:14.293Z,99150.13
2023-01-21T10:17:43.024Z,99146.69
2023-01-21T10:20:34.317Z,99152.63
2023-01-21T10:23:43.543Z,99139.84
2023-01-21T10:26:17.241Z,99148.41
2023-01-21T10:28:54.069Z,99145.59
2023-01-21T10:31:39.219Z,99134.00
2023-01-21T10:34:19.470Z,99144.28
2023-01-21T10:37:11.363Z,99136.66
2023-01-21T10:40:17.384Z,99129.81
2023-01-21T10:43:07.070Z,99125.00
2023-01-21T10:46:31.394Z,99129.06
2023-01-21T10:50:24.260Z,99125.09
2023-01-21T10:53:44.267Z,99128.03
2023-01-21T10:57:06.505Z,99131.31
2023-01-21T10:59:38.148Z,99123.97
2023-01-21T11:02:30.267Z,99115.34
2023-01-21T11:05:11.367Z,99117.25
2023-01-21T11:07:42.437Z,99118.34
2023-01-21T11:10:19.354Z,99116.44
2023-01-21T11:12:48.003Z,99108.06
2023-01-21T11:15:20.430Z,99110.84
2023-01-21T11:17:59.636Z,99108.91
2023-01-21T11:20:41.691Z,99119.13
2023-01-21T11:23:32.060Z,99108.00
2023-01-21T11:26:21.211Z,99101.78
2023-01-21T11:28:48.596Z,99095.28
2023-01-21T11:31:27.397Z,99102.16
2023-01-21T11:34:03.317Z,99086.16
2023-01-21T11:36:31.045Z,99091.22
2023-01-21T11:39:14.225Z,99090.31
2023-01-21T11:41:57.958Z,99090.50
2023-01-21T11:44:25.946Z,99078.13
2023-01-21T11:46:53.569Z,99086.41
2023-01-21T11:49:31.452Z,99091.63
2023-01-21T11:52:20.070Z,99078.19
2023-01-21T11:54:48.476Z,99084.19
2023-01-21T11:57:32.846Z,99075.97
2023-01-21T12:00:20.084Z,99059.91
2023-01-21T12:03:00.644Z,99059.38
2023-01-21T12:05:40.836Z,99063.31
2023-01-21T12:08:21.705Z,99054.22
2023-01-21T12:10:51.292Z,99040.63
2023-01-21T12:13:40.648Z,99047.59
2023-01-21T12:16:49.512Z,99052.91
2023-01-21T12:19:45.595Z,99049.28
2023-01-21T12:23:36.277Z,99041.09
2023-01-21T12:26:48.047Z,99039.97
2023-01-21T12:30:11.980Z,99048.81
2023-01-21T12:32:51.579Z,99044.50
2023-01-21T12:35:56.028Z,99032.34
2023-01-21T12:38:34.829Z,99030.88
2023-01-21T12:41:26.444Z,99027.59
2023-01-21T12:44:50.471Z,99020.72
2023-01-21T12:47:44.012Z,99023.56
2023-01-21T12:50:36.018Z,99025.22
2023-01-21T12:53:50.511Z,99022.41
2023-01-21T12:56:50.660Z,99021.75
2023-01-21T12:59:42.553Z,99012.06
2023-01-21T13:02:35.680Z,99014.38
2023-01-21T13:06:18.103Z,99016.56
2023-01-21T13:09:19.519Z,99013.66
2023-01-21T13:11:58.128Z,99012.44
2023-01-21T13:15:04.113Z,99015.88
2023-01-21T13:17:38.312Z,99011.81
2023-01-21T13:20:22.702Z,99012.63
2023-01-21T13:24:01.487Z,99014.53
2023-01-21T13:27:22.643Z,99007.03
2023-01-21T13:30:10.674Z,99019.16
2023-01-21T13:32:52.690Z,99021.13
2023-01-21T13:35:55.496Z,99019.81
2023-01-21T13:38:49.984Z,99033.47
2023-01-21T13:42:22.513Z,99042.31
2023-01-21T13:45:42.996Z,99037.16
2023-01-21T13:48:44.923Z,99050.22
2023-01-21T13:52:01.461Z,99051.97
2023-01-21T13:54:52.880Z,99049.41
2023-01-21T13:58:30.349Z,99048.91
2023-01-21T14:01:26.205Z,99043.28
2023-01-21T14:04:15.596Z,99056.78
2023-01-21T14:06:57.588Z,99059.44
2023-01-21T14:09:49.694Z,99049.25
2023-01-21T14:13:29.273Z,99061.25
2023-01-21T14:16:36.131Z,99064.13
2023-01-21T14:19:44.759Z,99060.97
2023-01-21T14:24:02.869Z,99069.78
2023-01-21T14:27:25.255Z,99070.22
2023-01-21T14:30:24.473Z,99082.94
2023-01-21T14:33:06.932Z,99079.06
2023-01-21T14:36:15.523Z,99085.88
2023-01-21T14:39:19.931Z,99089.97
2023-01-21T14:42:17.609Z,99087.94
2023-01-21T14:45:08.311Z,99083.69
2023-01-21T14:47:35.400Z,99095.13
2023-01-21T14:50:03.066Z,99093.88
2023-01-21T14:52:45.748Z,99103.25
2023-01-21T14:55:32.979Z,99103.66
2023-01-21T14:58:01.850Z,99115.06
2023-01-21T15:00:34.820Z,99111.97
2023-01-21T15:03:28.435Z,99119.50
2023-01-21T15:06:08.003Z,99115.34
2023-01-21T15:08:46.383Z,99116.19
2023-01-21T15:11:41.113Z,99123.78
2023-01-21T15:14:33.400Z,99136.53
2023-01-21T15:17:01.064Z,99138.34
2023-01-21T15:19:37.460Z,99136.53
2023-01-21T15:22:37.681Z,99143.84
2023-01-21T15:25:31.777Z,99138.00
2023-01-21T15:28:57.654Z,99159.81
2023-01-21T15:31:45.125Z,99156.81
2023-01-21T15:34:18.421Z,99166.19
2023-01-21T15:36:57.321Z,99150.94
2023-01-21T15:39:34.512Z,99175.03
2023-01-21T15:42:44.343Z,99184.41
2023-01-21T15:45:41.070Z,99178.16
2023-01-21T15:48:42.728Z,99182.44
2023-01-21T15:51:31.549Z,99183.16
2023-01-21T15:54:49.058Z,99184.19
2023-01-21T15:58:06.275Z,99196.66
2023-01-21T16:01:01.838Z,99189.84
2023-01-21T16:04:12.532Z,99190.81
2023-01-21T16:07:32.826Z,99208.53
2023-01-21T16:10:45.189Z,99199.06
2023-01-21T16:13:49.688Z,99194.34
2023-01-21T16:16:47.209Z,99201.88
2023-01-21T16:19:35.054Z,99196.53
2023-01-21T16:22:07.664Z,99207.78
2023-01-21T16:24:48.557Z,99210.47
2023-01-21T16:27:24.841Z,99214.59
2023-01-21T16:30:35.220Z,99206.38
2023-01-21T16:33:15.359Z,99209.06
2023-01-21T16:36:01.023Z,99203.81
2023-01-21T16:38:32.557Z,99208.38
2023-01-21T16:41:08.567Z,99206.94
2023-01-21T16:43:58.535Z,99215.28
2023-01-21T16:46:40.299Z,99214.03
2023-01-21T16:49:17.103Z,99210.03
2023-01-21T16:52:01.884Z,99220.72
2023-01-21T16:54:33.349Z,99223.84
2023-01-21T16:57:25.731Z,99226.28
2023-01-21T16:59:55.841Z,99217.03
2023-01-21T17:02:32.147Z,99225.31
2023-01-21T17:05:05.152Z,99232.81
2023-01-21T17:07:46.918Z,99234.94
2023-01-21T17:10:29.539Z,99234.09
2023-01-21T17:13:04.688Z,99234.28
2023-01-21T17:16:09.444Z,99240.19
2023-01-21T17:18:52.118Z,99231.69
2023-01-21T17:21:44.223Z,99246.66
2023-01-21T17:24:38.521Z,99243.41
2023-01-21T17:27:18.179Z,99242.53
2023-01-21T17:29:45.593Z,99253.38
2023-01-21T17:32:33.547Z,99253.03
2023-01-21T17:35:16.111Z,99254.06
